KPWM/PWM METAR and TAF weather

Enter ICAO airport designator
Station Type Date Time Source
KPWM METAR 2021/08/04 18:51 UTC NOAA

KPWM 041851Z 16009KT 10SM FEW050 OVC200 24/14 A3019 RMK AO2 SLP221 T02440144


Station Type Date Time Source
KPWM Decoded METAR 2021/08/04 18:51 UTC NOAA

PORTLAND INTERNATIONAL JETPORT, ME, United States (KPWM) 43-39N 70-18W 15M
Aug 04, 2021 - 02:51 PM EDT / 2021.08.04 1851 UTC
Wind: from the SSE (160 degrees) at 10 MPH (9 KT):0
Visibility: 10 mile(s):0
Sky conditions: overcast
Temperature: 75.9 F (24.4 C)
Dew Point: 57.9 F (14.4 C)
Relative Humidity: 53%
Pressure (altimeter): 30.19 in. Hg (1022 hPa)
ob: KPWM 041851Z 16009KT 10SM FEW050 OVC200 24/14 A3019 RMK AO2 SLP221 T02440144
cycle: 19

Station Type Date Time Source
KPWM TAF 2021/08/04 18:22 UTC NOAA

TAF KPWM 041720Z 0418/0518 16007KT P6SM FEW050 OVC200
FM050000 16005KT P6SM OVC019
FM050100 14004KT 5SM BR OVC004
FM050600 06008KT 2SM SHRA BR OVC004
FM051400 02005KT 1 1/2SM -RA BR OVC007

Example: see airport list